sensor_id;sensor_type;location;lat;lon;timestamp;P1;durP1;ratioP1;P2;durP2;ratioP2
22223;SDS011;11281;52.194;21.006;2023-02-15T00:03:04;48.70;;;22.08;;
22223;SDS011;11281;52.194;21.006;2023-02-15T00:07:25;62.17;;;25.23;;
22223;SDS011;11281;52.194;21.006;2023-02-15T00:11:47;55.90;;;25.67;;
22223;SDS011;11281;52.194;21.006;2023-02-15T00:16:12;67.43;;;29.85;;
22223;SDS011;11281;52.194;21.006;2023-02-15T00:20:34;53.05;;;25.13;;
22223;SDS011;11281;52.194;21.006;2023-02-15T00:24:56;59.22;;;25.30;;
22223;SDS011;11281;52.194;21.006;2023-02-15T00:29:18;62.33;;;27.65;;
22223;SDS011;11281;52.194;21.006;2023-02-15T00:33:41;50.92;;;24.63;;
22223;SDS011;11281;52.194;21.006;2023-02-15T00:38:02;51.78;;;23.80;;
22223;SDS011;11281;52.194;21.006;2023-02-15T00:42:24;63.83;;;29.17;;
22223;SDS011;11281;52.194;21.006;2023-02-15T00:46:46;61.17;;;28.75;;
22223;SDS011;11281;52.194;21.006;2023-02-15T00:51:08;59.60;;;24.40;;
22223;SDS011;11281;52.194;21.006;2023-02-15T00:55:29;47.00;;;23.15;;
22223;SDS011;11281;52.194;21.006;2023-02-15T00:59:51;49.95;;;22.70;;
22223;SDS011;11281;52.194;21.006;2023-02-15T01:04:13;43.42;;;22.58;;
22223;SDS011;11281;52.194;21.006;2023-02-15T01:08:35;40.78;;;22.40;;
22223;SDS011;11281;52.194;21.006;2023-02-15T01:12:56;39.63;;;20.08;;
22223;SDS011;11281;52.194;21.006;2023-02-15T01:17:18;47.85;;;21.70;;
22223;SDS011;11281;52.194;21.006;2023-02-15T01:21:40;51.47;;;23.05;;
22223;SDS011;11281;52.194;21.006;2023-02-15T01:26:02;42.53;;;22.10;;
22223;SDS011;11281;52.194;21.006;2023-02-15T01:30:24;47.95;;;21.17;;
22223;SDS011;11281;52.194;21.006;2023-02-15T01:34:45;46.40;;;21.20;;
22223;SDS011;11281;52.194;21.006;2023-02-15T01:39:07;42.97;;;20.48;;
22223;SDS011;11281;52.194;21.006;2023-02-15T01:43:43;45.78;;;20.75;;
22223;SDS011;11281;52.194;21.006;2023-02-15T01:48:21;43.53;;;20.88;;
22223;SDS011;11281;52.194;21.006;2023-02-15T01:57:26;50.00;;;22.77;;
22223;SDS011;11281;52.194;21.006;2023-02-15T02:01:50;43.80;;;21.60;;
22223;SDS011;11281;52.194;21.006;2023-02-15T02:06:15;45.97;;;20.85;;
22223;SDS011;11281;52.194;21.006;2023-02-15T02:10:37;48.03;;;21.60;;
22223;SDS011;11281;52.194;21.006;2023-02-15T02:14:59;46.45;;;22.50;;
22223;SDS011;11281;52.194;21.006;2023-02-15T02:48:56;45.13;;;21.17;;
22223;SDS011;11281;52.194;21.006;2023-02-15T02:53:18;43.88;;;21.83;;
22223;SDS011;11281;52.194;21.006;2023-02-15T02:57:48;48.85;;;22.63;;
22223;SDS011;11281;52.194;21.006;2023-02-15T03:02:20;58.60;;;23.58;;
22223;SDS011;11281;52.194;21.006;2023-02-15T03:06:55;38.30;;;19.30;;
22223;SDS011;11281;52.194;21.006;2023-02-15T03:11:27;53.03;;;21.63;;
22223;SDS011;11281;52.194;21.006;2023-02-15T03:15:49;49.63;;;22.27;;
22223;SDS011;11281;52.194;21.006;2023-02-15T03:20:32;45.25;;;21.13;;
22223;SDS011;11281;52.194;21.006;2023-02-15T03:24:59;43.65;;;22.15;;
22223;SDS011;11281;52.194;21.006;2023-02-15T03:29:34;48.90;;;21.57;;
22223;SDS011;11281;52.194;21.006;2023-02-15T03:33:58;56.90;;;22.38;;
22223;SDS011;11281;52.194;21.006;2023-02-15T03:38:40;44.85;;;21.75;;
22223;SDS011;11281;52.194;21.006;2023-02-15T03:47:51;44.80;;;20.60;;
22223;SDS011;11281;52.194;21.006;2023-02-15T03:52:15;51.15;;;21.77;;
22223;SDS011;11281;52.194;21.006;2023-02-15T03:56:41;46.55;;;21.23;;
22223;SDS011;11281;52.194;21.006;2023-02-15T04:06:18;47.25;;;21.10;;
22223;SDS011;11281;52.194;21.006;2023-02-15T04:10:40;46.15;;;22.17;;
22223;SDS011;11281;52.194;21.006;2023-02-15T04:15:14;38.92;;;18.95;;
22223;SDS011;11281;52.194;21.006;2023-02-15T04:19:54;52.25;;;22.55;;
22223;SDS011;11281;52.194;21.006;2023-02-15T04:24:34;36.97;;;19.13;;
22223;SDS011;11281;52.194;21.006;2023-02-15T04:29:14;43.25;;;19.73;;
22223;SDS011;11281;52.194;21.006;2023-02-15T04:33:36;39.20;;;19.95;;
22223;SDS011;11281;52.194;21.006;2023-02-15T04:37:58;52.50;;;22.15;;
22223;SDS011;11281;52.194;21.006;2023-02-15T04:42:20;44.63;;;19.27;;
22223;SDS011;11281;52.194;21.006;2023-02-15T04:46:41;41.38;;;20.13;;
22223;SDS011;11281;52.194;21.006;2023-02-15T04:51:06;44.40;;;20.38;;
22223;SDS011;11281;52.194;21.006;2023-02-15T04:55:29;40.83;;;18.48;;
22223;SDS011;11281;52.194;21.006;2023-02-15T04:59:50;37.80;;;17.48;;
22223;SDS011;11281;52.194;21.006;2023-02-15T05:04:12;33.67;;;16.95;;
22223;SDS011;11281;52.194;21.006;2023-02-15T05:08:34;35.10;;;16.88;;
22223;SDS011;11281;52.194;21.006;2023-02-15T05:12:55;36.28;;;16.75;;
22223;SDS011;11281;52.194;21.006;2023-02-15T05:17:17;33.67;;;15.65;;
22223;SDS011;11281;52.194;21.006;2023-02-15T05:21:39;47.47;;;18.02;;
22223;SDS011;11281;52.194;21.006;2023-02-15T05:26:01;33.90;;;16.52;;
22223;SDS011;11281;52.194;21.006;2023-02-15T05:30:41;31.20;;;16.23;;
22223;SDS011;11281;52.194;21.006;2023-02-15T05:35:04;39.25;;;18.65;;
22223;SDS011;11281;52.194;21.006;2023-02-15T05:39:27;37.80;;;16.02;;
22223;SDS011;11281;52.194;21.006;2023-02-15T05:43:49;32.95;;;14.68;;
22223;SDS011;11281;52.194;21.006;2023-02-15T05:48:10;35.75;;;14.32;;
22223;SDS011;11281;52.194;21.006;2023-02-15T05:52:33;33.50;;;14.55;;
22223;SDS011;11281;52.194;21.006;2023-02-15T05:56:55;31.02;;;14.25;;
22223;SDS011;11281;52.194;21.006;2023-02-15T06:01:18;32.72;;;16.10;;
22223;SDS011;11281;52.194;21.006;2023-02-15T06:05:42;37.50;;;14.77;;
22223;SDS011;11281;52.194;21.006;2023-02-15T06:10:04;37.35;;;15.75;;
22223;SDS011;11281;52.194;21.006;2023-02-15T06:14:27;36.08;;;16.10;;
22223;SDS011;11281;52.194;21.006;2023-02-15T06:18:49;41.63;;;14.18;;
22223;SDS011;11281;52.194;21.006;2023-02-15T06:23:10;33.75;;;14.90;;
22223;SDS011;11281;52.194;21.006;2023-02-15T06:27:32;44.08;;;16.13;;
22223;SDS011;11281;52.194;21.006;2023-02-15T06:31:54;43.92;;;15.85;;
22223;SDS011;11281;52.194;21.006;2023-02-15T06:36:16;43.17;;;16.50;;
22223;SDS011;11281;52.194;21.006;2023-02-15T06:40:37;33.17;;;14.65;;
22223;SDS011;11281;52.194;21.006;2023-02-15T06:44:59;34.47;;;14.63;;
22223;SDS011;11281;52.194;21.006;2023-02-15T06:49:21;33.88;;;15.40;;
22223;SDS011;11281;52.194;21.006;2023-02-15T06:53:43;35.75;;;15.07;;
22223;SDS011;11281;52.194;21.006;2023-02-15T06:58:04;33.00;;;13.27;;
22223;SDS011;11281;52.194;21.006;2023-02-15T07:02:26;38.20;;;15.30;;
22223;SDS011;11281;52.194;21.006;2023-02-15T07:06:48;37.20;;;15.63;;
22223;SDS011;11281;52.194;21.006;2023-02-15T07:11:09;41.05;;;15.95;;
22223;SDS011;11281;52.194;21.006;2023-02-15T07:15:50;52.30;;;24.48;;
22223;SDS011;11281;52.194;21.006;2023-02-15T07:20:13;118.15;;;46.85;;
22223;SDS011;11281;52.194;21.006;2023-02-15T07:24:38;56.50;;;25.73;;
22223;SDS011;11281;52.194;21.006;2023-02-15T07:29:00;43.17;;;18.98;;
22223;SDS011;11281;52.194;21.006;2023-02-15T07:33:22;51.08;;;19.65;;
22223;SDS011;11281;52.194;21.006;2023-02-15T07:37:44;45.63;;;19.45;;
22223;SDS011;11281;52.194;21.006;2023-02-15T07:42:05;47.45;;;19.05;;
22223;SDS011;11281;52.194;21.006;2023-02-15T07:46:27;38.58;;;17.92;;
22223;SDS011;11281;52.194;21.006;2023-02-15T07:50:49;46.47;;;19.40;;
22223;SDS011;11281;52.194;21.006;2023-02-15T07:55:10;55.70;;;23.13;;
22223;SDS011;11281;52.194;21.006;2023-02-15T07:59:33;66.65;;;30.95;;
22223;SDS011;11281;52.194;21.006;2023-02-15T08:03:55;59.17;;;26.40;;
22223;SDS011;11281;52.194;21.006;2023-02-15T08:08:17;61.45;;;25.80;;
22223;SDS011;11281;52.194;21.006;2023-02-15T08:12:51;59.67;;;25.70;;
22223;SDS011;11281;52.194;21.006;2023-02-15T08:17:12;53.17;;;21.95;;
22223;SDS011;11281;52.194;21.006;2023-02-15T08:21:35;52.47;;;23.73;;
22223;SDS011;11281;52.194;21.006;2023-02-15T08:26:00;65.90;;;26.25;;
22223;SDS011;11281;52.194;21.006;2023-02-15T08:30:21;47.50;;;21.40;;
22223;SDS011;11281;52.194;21.006;2023-02-15T08:34:43;44.47;;;19.65;;
22223;SDS011;11281;52.194;21.006;2023-02-15T08:39:05;49.50;;;20.67;;
22223;SDS011;11281;52.194;21.006;2023-02-15T08:43:28;57.33;;;24.17;;
22223;SDS011;11281;52.194;21.006;2023-02-15T08:47:50;53.33;;;24.48;;
22223;SDS011;11281;52.194;21.006;2023-02-15T08:52:11;75.28;;;33.88;;
22223;SDS011;11281;52.194;21.006;2023-02-15T08:56:34;60.97;;;25.02;;
22223;SDS011;11281;52.194;21.006;2023-02-15T09:00:58;55.75;;;24.48;;
22223;SDS011;11281;52.194;21.006;2023-02-15T09:05:20;64.32;;;28.95;;
22223;SDS011;11281;52.194;21.006;2023-02-15T09:09:41;49.75;;;21.35;;
22223;SDS011;11281;52.194;21.006;2023-02-15T09:14:04;45.83;;;21.38;;
22223;SDS011;11281;52.194;21.006;2023-02-15T09:18:35;40.25;;;18.98;;
22223;SDS011;11281;52.194;21.006;2023-02-15T09:22:58;42.80;;;21.25;;
22223;SDS011;11281;52.194;21.006;2023-02-15T09:27:20;60.47;;;26.20;;
22223;SDS011;11281;52.194;21.006;2023-02-15T09:31:46;54.33;;;24.02;;
22223;SDS011;11281;52.194;21.006;2023-02-15T09:41:08;43.50;;;20.77;;
22223;SDS011;11281;52.194;21.006;2023-02-15T09:46:11;45.88;;;20.85;;
22223;SDS011;11281;52.194;21.006;2023-02-15T09:51:26;43.28;;;19.80;;
22223;SDS011;11281;52.194;21.006;2023-02-15T09:56:10;57.20;;;24.85;;
22223;SDS011;11281;52.194;21.006;2023-02-15T10:25:12;40.00;;;18.40;;
22223;SDS011;11281;52.194;21.006;2023-02-15T10:30:04;42.45;;;19.90;;
22223;SDS011;11281;52.194;21.006;2023-02-15T10:57:57;30.95;;;15.63;;
22223;SDS011;11281;52.194;21.006;2023-02-15T11:02:54;31.10;;;13.90;;
22223;SDS011;11281;52.194;21.006;2023-02-15T11:07:54;31.90;;;15.00;;
22223;SDS011;11281;52.194;21.006;2023-02-15T11:12:22;37.83;;;14.85;;
22223;SDS011;11281;52.194;21.006;2023-02-15T11:16:46;31.83;;;14.07;;
22223;SDS011;11281;52.194;21.006;2023-02-15T11:25:46;38.70;;;15.27;;
22223;SDS011;11281;52.194;21.006;2023-02-15T11:30:20;29.40;;;13.98;;
22223;SDS011;11281;52.194;21.006;2023-02-15T11:39:16;33.28;;;15.00;;
22223;SDS011;11281;52.194;21.006;2023-02-15T11:44:01;28.17;;;14.25;;
22223;SDS011;11281;52.194;21.006;2023-02-15T11:48:29;34.88;;;15.55;;
22223;SDS011;11281;52.194;21.006;2023-02-15T11:52:53;32.75;;;14.93;;
22223;SDS011;11281;52.194;21.006;2023-02-15T12:01:56;35.47;;;14.50;;
22223;SDS011;11281;52.194;21.006;2023-02-15T12:06:23;33.38;;;14.38;;
22223;SDS011;11281;52.194;21.006;2023-02-15T12:11:32;31.75;;;15.02;;
22223;SDS011;11281;52.194;21.006;2023-02-15T12:15:43;33.67;;;14.80;;
22223;SDS011;11281;52.194;21.006;2023-02-15T12:24:44;40.15;;;15.52;;
22223;SDS011;11281;52.194;21.006;2023-02-15T12:29:17;29.38;;;14.10;;
22223;SDS011;11281;52.194;21.006;2023-02-15T12:33:45;33.25;;;14.50;;
22223;SDS011;11281;52.194;21.006;2023-02-15T12:42:42;35.97;;;14.63;;
22223;SDS011;11281;52.194;21.006;2023-02-15T12:47:10;34.42;;;14.55;;
22223;SDS011;11281;52.194;21.006;2023-02-15T12:51:44;35.40;;;13.95;;
22223;SDS011;11281;52.194;21.006;2023-02-15T12:56:11;30.70;;;13.52;;
22223;SDS011;11281;52.194;21.006;2023-02-15T13:00:33;36.17;;;15.00;;
22223;SDS011;11281;52.194;21.006;2023-02-15T13:04:56;35.90;;;15.00;;
22223;SDS011;11281;52.194;21.006;2023-02-15T13:09:38;40.83;;;14.80;;
22223;SDS011;11281;52.194;21.006;2023-02-15T13:14:02;31.95;;;13.90;;
22223;SDS011;11281;52.194;21.006;2023-02-15T13:18:42;34.92;;;14.02;;
22223;SDS011;11281;52.194;21.006;2023-02-15T13:23:10;33.40;;;13.23;;
22223;SDS011;11281;52.194;21.006;2023-02-15T13:27:50;25.33;;;12.65;;
22223;SDS011;11281;52.194;21.006;2023-02-15T13:32:25;32.75;;;13.13;;
22223;SDS011;11281;52.194;21.006;2023-02-15T13:36:57;29.63;;;12.30;;
22223;SDS011;11281;52.194;21.006;2023-02-15T13:41:41;27.60;;;12.93;;
22223;SDS011;11281;52.194;21.006;2023-02-15T13:46:25;29.15;;;13.13;;
22223;SDS011;11281;52.194;21.006;2023-02-15T14:04:51;33.58;;;13.48;;
22223;SDS011;11281;52.194;21.006;2023-02-15T14:09:51;33.22;;;14.10;;
22223;SDS011;11281;52.194;21.006;2023-02-15T14:19:52;31.92;;;14.05;;
22223;SDS011;11281;52.194;21.006;2023-02-15T14:24:18;37.50;;;14.57;;
22223;SDS011;11281;52.194;21.006;2023-02-15T14:28:58;35.40;;;14.45;;
22223;SDS011;11281;52.194;21.006;2023-02-15T14:33:33;41.57;;;16.23;;
22223;SDS011;11281;52.194;21.006;2023-02-15T14:38:09;36.40;;;15.52;;
22223;SDS011;11281;52.194;21.006;2023-02-15T14:43:19;43.33;;;16.58;;
22223;SDS011;11281;52.194;21.006;2023-02-15T14:48:01;40.05;;;16.65;;
22223;SDS011;11281;52.194;21.006;2023-02-15T14:52:31;39.22;;;14.90;;
22223;SDS011;11281;52.194;21.006;2023-02-15T14:57:56;37.42;;;16.73;;
22223;SDS011;11281;52.194;21.006;2023-02-15T15:02:41;41.28;;;17.52;;
22223;SDS011;11281;52.194;21.006;2023-02-15T15:07:16;36.95;;;15.15;;
22223;SDS011;11281;52.194;21.006;2023-02-15T15:11:49;44.10;;;16.35;;
22223;SDS011;11281;52.194;21.006;2023-02-15T15:21:09;35.53;;;17.27;;
22223;SDS011;11281;52.194;21.006;2023-02-15T15:29:59;37.63;;;16.10;;
22223;SDS011;11281;52.194;21.006;2023-02-15T15:34:45;48.53;;;18.52;;
22223;SDS011;11281;52.194;21.006;2023-02-15T15:44:41;46.83;;;19.05;;
22223;SDS011;11281;52.194;21.006;2023-02-15T15:49:24;48.78;;;19.67;;
22223;SDS011;11281;52.194;21.006;2023-02-15T15:53:53;38.65;;;17.05;;
22223;SDS011;11281;52.194;21.006;2023-02-15T15:58:16;38.17;;;16.80;;
22223;SDS011;11281;52.194;21.006;2023-02-15T16:02:50;46.80;;;19.20;;
22223;SDS011;11281;52.194;21.006;2023-02-15T16:07:18;51.33;;;19.38;;
22223;SDS011;11281;52.194;21.006;2023-02-15T16:11:53;43.85;;;18.42;;
22223;SDS011;11281;52.194;21.006;2023-02-15T16:16:27;52.40;;;19.17;;
22223;SDS011;11281;52.194;21.006;2023-02-15T16:20:59;40.67;;;19.02;;
22223;SDS011;11281;52.194;21.006;2023-02-15T16:30:26;45.22;;;18.08;;
22223;SDS011;11281;52.194;21.006;2023-02-15T16:35:01;47.50;;;18.27;;
22223;SDS011;11281;52.194;21.006;2023-02-15T16:39:23;46.58;;;18.52;;
22223;SDS011;11281;52.194;21.006;2023-02-15T16:43:45;45.67;;;18.45;;
22223;SDS011;11281;52.194;21.006;2023-02-15T16:48:16;43.28;;;17.27;;
22223;SDS011;11281;52.194;21.006;2023-02-15T16:52:42;48.58;;;19.08;;
22223;SDS011;11281;52.194;21.006;2023-02-15T16:57:04;50.97;;;18.98;;
22223;SDS011;11281;52.194;21.006;2023-02-15T17:01:27;47.38;;;17.65;;
22223;SDS011;11281;52.194;21.006;2023-02-15T17:05:57;51.85;;;19.08;;
22223;SDS011;11281;52.194;21.006;2023-02-15T17:14:57;47.22;;;17.60;;
22223;SDS011;11281;52.194;21.006;2023-02-15T17:19:20;46.47;;;18.52;;
22223;SDS011;11281;52.194;21.006;2023-02-15T17:23:56;39.55;;;17.00;;
22223;SDS011;11281;52.194;21.006;2023-02-15T17:28:22;36.25;;;15.95;;
22223;SDS011;11281;52.194;21.006;2023-02-15T17:32:57;43.03;;;16.15;;
22223;SDS011;11281;52.194;21.006;2023-02-15T17:41:54;50.05;;;18.75;;
22223;SDS011;11281;52.194;21.006;2023-02-15T17:46:16;37.83;;;15.75;;
22223;SDS011;11281;52.194;21.006;2023-02-15T17:50:39;58.45;;;20.92;;
22223;SDS011;11281;52.194;21.006;2023-02-15T17:55:01;47.42;;;17.98;;
22223;SDS011;11281;52.194;21.006;2023-02-15T17:59:53;72.55;;;30.20;;
22223;SDS011;11281;52.194;21.006;2023-02-15T18:04:34;58.33;;;23.90;;
22223;SDS011;11281;52.194;21.006;2023-02-15T18:09:16;51.47;;;21.40;;
22223;SDS011;11281;52.194;21.006;2023-02-15T18:13:58;58.75;;;24.67;;
22223;SDS011;11281;52.194;21.006;2023-02-15T18:18:21;58.15;;;27.35;;
22223;SDS011;11281;52.194;21.006;2023-02-15T18:22:44;48.42;;;20.52;;
22223;SDS011;11281;52.194;21.006;2023-02-15T18:27:06;59.63;;;26.27;;
22223;SDS011;11281;52.194;21.006;2023-02-15T18:31:28;56.95;;;23.60;;
22223;SDS011;11281;52.194;21.006;2023-02-15T18:35:49;44.40;;;20.90;;
22223;SDS011;11281;52.194;21.006;2023-02-15T18:40:14;51.42;;;22.90;;
22223;SDS011;11281;52.194;21.006;2023-02-15T18:44:38;42.85;;;18.45;;
22223;SDS011;11281;52.194;21.006;2023-02-15T18:49:00;46.40;;;18.27;;
22223;SDS011;11281;52.194;21.006;2023-02-15T18:53:21;41.40;;;17.20;;
22223;SDS011;11281;52.194;21.006;2023-02-15T18:57:44;41.58;;;18.27;;
22223;SDS011;11281;52.194;21.006;2023-02-15T19:02:11;47.58;;;18.15;;
22223;SDS011;11281;52.194;21.006;2023-02-15T19:06:34;40.38;;;17.67;;
22223;SDS011;11281;52.194;21.006;2023-02-15T19:10:57;44.55;;;17.08;;
22223;SDS011;11281;52.194;21.006;2023-02-15T19:15:26;50.97;;;20.58;;
22223;SDS011;11281;52.194;21.006;2023-02-15T19:19:52;44.28;;;17.55;;
22223;SDS011;11281;52.194;21.006;2023-02-15T19:24:17;46.80;;;19.73;;
22223;SDS011;11281;52.194;21.006;2023-02-15T19:28:58;49.08;;;21.75;;
22223;SDS011;11281;52.194;21.006;2023-02-15T19:33:21;49.15;;;20.08;;
22223;SDS011;11281;52.194;21.006;2023-02-15T19:37:43;44.50;;;20.55;;
22223;SDS011;11281;52.194;21.006;2023-02-15T19:42:13;38.88;;;19.05;;
22223;SDS011;11281;52.194;21.006;2023-02-15T19:46:38;46.65;;;19.35;;
22223;SDS011;11281;52.194;21.006;2023-02-15T19:51:00;49.00;;;18.48;;
22223;SDS011;11281;52.194;21.006;2023-02-15T19:55:24;47.03;;;19.20;;
22223;SDS011;11281;52.194;21.006;2023-02-15T19:59:52;35.85;;;17.10;;
22223;SDS011;11281;52.194;21.006;2023-02-15T20:04:13;40.40;;;18.35;;
22223;SDS011;11281;52.194;21.006;2023-02-15T20:08:35;45.35;;;18.88;;
22223;SDS011;11281;52.194;21.006;2023-02-15T20:12:57;45.05;;;19.75;;
22223;SDS011;11281;52.194;21.006;2023-02-15T20:17:19;41.67;;;17.85;;
22223;SDS011;11281;52.194;21.006;2023-02-15T20:21:44;45.40;;;18.92;;
22223;SDS011;11281;52.194;21.006;2023-02-15T20:26:15;48.38;;;19.33;;
22223;SDS011;11281;52.194;21.006;2023-02-15T20:30:38;42.70;;;17.27;;
22223;SDS011;11281;52.194;21.006;2023-02-15T20:34:59;40.97;;;17.42;;
22223;SDS011;11281;52.194;21.006;2023-02-15T20:39:23;46.67;;;19.40;;
22223;SDS011;11281;52.194;21.006;2023-02-15T20:43:45;36.72;;;16.35;;
22223;SDS011;11281;52.194;21.006;2023-02-15T20:48:07;45.60;;;20.05;;
22223;SDS011;11281;52.194;21.006;2023-02-15T20:52:28;43.35;;;19.17;;
22223;SDS011;11281;52.194;21.006;2023-02-15T20:56:50;49.00;;;19.48;;
22223;SDS011;11281;52.194;21.006;2023-02-15T21:01:13;45.17;;;18.13;;
22223;SDS011;11281;52.194;21.006;2023-02-15T21:05:35;48.75;;;18.48;;
22223;SDS011;11281;52.194;21.006;2023-02-15T21:09:57;48.85;;;19.08;;
22223;SDS011;11281;52.194;21.006;2023-02-15T21:14:21;46.38;;;19.38;;
22223;SDS011;11281;52.194;21.006;2023-02-15T21:18:44;54.38;;;19.38;;
22223;SDS011;11281;52.194;21.006;2023-02-15T21:23:06;46.90;;;20.38;;
22223;SDS011;11281;52.194;21.006;2023-02-15T21:27:32;47.72;;;18.42;;
22223;SDS011;11281;52.194;21.006;2023-02-15T21:31:54;44.28;;;18.10;;
22223;SDS011;11281;52.194;21.006;2023-02-15T21:36:18;53.90;;;20.98;;
22223;SDS011;11281;52.194;21.006;2023-02-15T21:40:43;50.05;;;19.10;;
22223;SDS011;11281;52.194;21.006;2023-02-15T21:45:12;48.08;;;18.25;;
22223;SDS011;11281;52.194;21.006;2023-02-15T21:49:56;43.08;;;16.70;;
22223;SDS011;11281;52.194;21.006;2023-02-15T21:54:39;44.78;;;16.90;;
22223;SDS011;11281;52.194;21.006;2023-02-15T21:59:01;39.53;;;17.60;;
22223;SDS011;11281;52.194;21.006;2023-02-15T22:03:28;38.78;;;16.90;;
22223;SDS011;11281;52.194;21.006;2023-02-15T22:07:56;37.35;;;16.70;;
22223;SDS011;11281;52.194;21.006;2023-02-15T22:12:18;49.67;;;18.40;;
22223;SDS011;11281;52.194;21.006;2023-02-15T22:16:42;40.30;;;18.42;;
22223;SDS011;11281;52.194;21.006;2023-02-15T22:21:03;51.33;;;17.60;;
22223;SDS011;11281;52.194;21.006;2023-02-15T22:25:25;47.22;;;19.10;;
22223;SDS011;11281;52.194;21.006;2023-02-15T22:29:47;47.50;;;18.35;;
22223;SDS011;11281;52.194;21.006;2023-02-15T22:38:48;39.15;;;16.60;;
22223;SDS011;11281;52.194;21.006;2023-02-15T22:47:56;44.63;;;16.85;;
22223;SDS011;11281;52.194;21.006;2023-02-15T22:52:19;42.00;;;15.30;;
22223;SDS011;11281;52.194;21.006;2023-02-15T22:56:47;40.35;;;16.08;;
22223;SDS011;11281;52.194;21.006;2023-02-15T23:01:17;44.05;;;17.23;;
22223;SDS011;11281;52.194;21.006;2023-02-15T23:05:46;40.42;;;16.10;;
22223;SDS011;11281;52.194;21.006;2023-02-15T23:10:09;42.58;;;17.67;;
22223;SDS011;11281;52.194;21.006;2023-02-15T23:14:40;48.38;;;19.02;;
22223;SDS011;11281;52.194;21.006;2023-02-15T23:19:02;43.33;;;17.58;;
22223;SDS011;11281;52.194;21.006;2023-02-15T23:23:33;52.67;;;19.42;;
22223;SDS011;11281;52.194;21.006;2023-02-15T23:27:58;51.67;;;20.45;;
22223;SDS011;11281;52.194;21.006;2023-02-15T23:32:19;55.72;;;20.83;;
22223;SDS011;11281;52.194;21.006;2023-02-15T23:36:42;61.83;;;21.55;;
22223;SDS011;11281;52.194;21.006;2023-02-15T23:41:04;49.08;;;19.55;;
22223;SDS011;11281;52.194;21.006;2023-02-15T23:45:40;50.85;;;20.35;;
22223;SDS011;11281;52.194;21.006;2023-02-15T23:50:02;53.25;;;19.80;;
22223;SDS011;11281;52.194;21.006;2023-02-15T23:54:43;46.05;;;19.23;;
22223;SDS011;11281;52.194;21.006;2023-02-15T23:59:05;55.30;;;20.73;;
